This is the latest recevied weather packets stored in our database for station/object WMKL. If no packets are shown the sender has not sent any weather packets the latest 10 day(s).
| Time | Temp. | Humidity | Pressure | Rain* | Wind** | Luminosity | Snow |
|---|---|---|---|---|---|---|---|
| 1777083025 | 27.78° C | 83% | 1010 hPa | - | - | - | - |
| 1777079425 | 27.78° C | 74% | 1010 hPa | - | - | - | - |
| 1777075825 | 27.78° C | 74% | 1009 hPa | - | - | - | - |
| 1777072226 | 27.78° C | 69% | 1009 hPa | - | - | - | - |
| 1777070425 | 26.67° C | 78% | 1008 hPa | - | - | - | - |
| 1777069840 | 25.56° C | 86% | 1008.6 hPa | - | - | - | - |
| 1777069225 | 26.67° C | 78% | 1008 hPa | - | - | - | - |
| 1777068659 | 25.56° C | 86% | 1008.4 hPa | - | - | - | - |
| 1777065025 | 27.78° C | 74% | 1007 hPa | - | - | - | - |
| 1777061430 | 26.67° C | 78% | 1007 hPa | - | - | - | - |
| 1777060225 | 27.78° C | 74% | 1008 hPa | - | - | - | - |
| 1777059640 | 26.11° C | 81% | 1008.1 hPa | - | - | - | - |
| 1777057825 | 27.78° C | 74% | 1008 hPa | - | - | - | - |
| 1777054246 | 26.67° C | 83% | 1008 hPa | - | - | - | - |
| 1777050625 | 27.78° C | 78% | 1009 hPa | - | - | - | - |
| 1777047029 | 28.89° C | 74% | 1009 hPa | - | - | - | - |
| 1777043426 | 28.89° C | 79% | 1008 hPa | - | - | - | - |
| 1777039844 | 28.89° C | 79% | 1008 hPa | - | - | - | - |
| 1777036225 | 30° C | 74% | 1007 hPa | - | - | - | - |
| 1777035624 | 30.56° C | 70% | 1006 hPa | - | - | - | - |
| 1777035039 | 30.56° C | 75% | 1007.2 hPa | - | - | - | - |
| 1777032629 | 30.56° C | 70% | 1006 hPa | - | - | - | - |
| 1777029024 | 30.56° C | 70% | 1005 hPa | - | - | - | - |
| 1777025442 | 31.67° C | 66% | 1004 hPa | - | - | - | - |
| 1777021824 | 31.67° C | 66% | 1005 hPa | - | - | - | - |
* Rain since midnight (hover to see other rain measurements)
** Current wind speed in m/s (hover to see current wind gust speed)